Time;durP1;ratioP1;P1;durP2;ratioP2;P2;SDS_P1;SDS_P2;PMS_P1;PMS_P2;Temp;Humidity;BMP_temperature;BMP_pressure;BME280_temperature;BME280_humidity;BME280_pressure;Samples;Min_cycle;Max_cycle;Signal;HPM_P1;HPM_P2
2023/09/10 00:01:56;;;;;;;6.55;3.10;;;;;;;17.22;100.00;101051.75;5039814;28;20029;-91
2023/09/10 00:04:21;;;;;;;5.75;3.15;;;;;;;17.30;100.00;101048.81;5040264;28;20086;-92
2023/09/10 00:06:47;;;;;;;7.15;4.10;;;;;;;17.30;100.00;101053.41;5040214;28;20104;-92
2023/09/10 00:09:12;;;;;;;6.15;3.50;;;;;;;17.32;100.00;101049.44;5054499;28;20029;-91
2023/09/10 00:11:38;;;;;;;9.98;3.33;;;;;;;17.34;100.00;101046.50;5069458;28;20039;-90
2023/09/10 00:14:04;;;;;;;7.50;3.30;;;;;;;17.39;100.00;101057.59;5081326;28;20021;-89
2023/09/10 00:16:29;;;;;;;5.72;2.40;;;;;;;17.40;100.00;101056.53;5061974;28;20061;-90
2023/09/10 00:18:55;;;;;;;5.97;3.05;;;;;;;17.41;100.00;101052.78;5053525;28;20475;-90
2023/09/10 00:21:21;;;;;;;5.95;2.85;;;;;;;17.41;100.00;101060.06;5068488;28;20041;-90
2023/09/10 00:23:46;;;;;;;4.72;2.25;;;;;;;17.36;100.00;101050.69;5068884;28;20025;-90
2023/09/10 00:26:12;;;;;;;5.72;2.63;;;;;;;17.38;100.00;101049.63;5068804;28;20055;-90
2023/09/10 00:28:37;;;;;;;4.80;2.67;;;;;;;17.37;100.00;101048.78;5070556;28;20053;-90
2023/09/10 00:31:04;;;;;;;4.85;2.88;;;;;;;17.34;100.00;101046.50;5069008;28;20084;-89
2023/09/10 00:33:30;;;;;;;5.30;2.60;;;;;;;17.31;100.00;101041.50;5070877;28;20025;-90
2023/09/10 00:35:56;;;;;;;5.90;3.00;;;;;;;17.25;100.00;101037.75;5052747;28;20033;-91
2023/09/10 00:38:22;;;;;;;4.57;2.42;;;;;;;17.31;100.00;101044.22;5070143;28;20033;-91
2023/09/10 00:40:47;;;;;;;4.80;2.65;;;;;;;17.34;100.00;101043.78;5070950;28;20040;-91
2023/09/10 00:43:13;;;;;;;6.05;2.70;;;;;;;17.33;100.00;101036.66;5069771;28;20021;-91
2023/09/10 00:45:39;;;;;;;5.32;2.42;;;;;;;17.35;100.00;101040.00;5044776;28;20463;-92
2023/09/10 00:48:04;;;;;;;4.50;2.63;;;;;;;17.34;100.00;101024.78;5048274;28;20025;-90
2023/09/10 00:50:30;;;;;;;4.50;2.63;;;;;;;17.41;100.00;101041.91;5053641;28;20040;-91
2023/09/10 00:52:57;;;;;;;7.05;2.35;;;;;;;17.42;100.00;101040.00;5053118;28;20067;-91
2023/09/10 00:55:29;;;;;;;4.07;2.45;;;;;;;17.42;100.00;101035.41;5052643;28;20100;-91
2023/09/10 00:57:55;;;;;;;5.32;2.58;;;;;;;17.42;100.00;101032.69;5070550;28;20059;-91
2023/09/10 01:00:21;;;;;;;3.92;2.60;;;;;;;17.42;100.00;101032.69;5052766;28;20040;-91
2023/09/10 01:02:49;;;;;;;4.45;2.20;;;;;;;17.43;100.00;101037.06;5053551;28;20029;-90
2023/09/10 01:05:16;;;;;;;4.03;2.63;;;;;;;17.44;100.00;101027.00;5037176;28;20041;-90
2023/09/10 01:07:41;;;;;;;5.28;2.30;;;;;;;17.46;100.00;101028.47;5036912;28;20024;-91
2023/09/10 01:10:08;;;;;;;4.22;2.40;;;;;;;17.53;100.00;101036.63;5064780;28;20033;-90
2023/09/10 01:12:56;;;;;;;3.63;2.10;;;;;;;17.56;100.00;101031.56;5045648;28;20048;-89
2023/09/10 01:15:27;;;;;;;3.85;2.70;;;;;;;17.57;100.00;101024.25;5061715;28;20472;-89
2023/09/10 01:18:05;;;;;;;4.85;2.33;;;;;;;17.52;100.00;101016.75;5057149;28;20028;-90
2023/09/10 01:21:12;;;;;;;3.72;2.28;;;;;;;17.51;100.00;101025.13;5036995;28;20472;-89
2023/09/10 01:23:52;;;;;;;3.60;2.30;;;;;;;17.44;100.00;101010.69;5042370;28;20041;-90
2023/09/10 01:26:18;;;;;;;5.20;2.47;;;;;;;17.41;100.00;101014.72;5037230;28;20029;-90
2023/09/10 01:28:44;;;;;;;4.25;2.30;;;;;;;17.38;100.00;101012.41;5053496;28;20483;-90
2023/09/10 01:31:11;;;;;;;3.20;2.20;;;;;;;17.33;100.00;100998.63;5036880;28;20086;-90
2023/09/10 01:33:40;;;;;;;5.72;2.55;;;;;;;17.17;100.00;100999.09;5069794;28;20104;-90
2023/09/10 01:36:19;;;;;;;3.60;2.30;;;;;;;16.98;100.00;100993.50;5036647;28;20036;-91
2023/09/10 01:38:52;;;;;;;5.57;2.67;;;;;;;16.69;100.00;100990.16;5036852;28;20033;-91
2023/09/10 01:41:19;;;;;;;5.78;2.60;;;;;;;16.48;100.00;100991.25;5054652;28;20025;-90
2023/09/10 01:43:45;;;;;;;5.38;2.83;;;;;;;16.29;100.00;100981.22;5037106;28;20040;-91
2023/09/10 01:46:12;;;;;;;3.90;2.10;;;;;;;16.10;100.00;100977.44;5044802;28;20037;-90
2023/09/10 01:48:39;;;;;;;6.13;2.90;;;;;;;16.01;100.00;100984.13;5050114;28;20029;-90
2023/09/10 01:51:04;;;;;;;7.25;3.60;;;;;;;15.88;100.00;100975.94;5051440;28;20020;-89
2023/09/10 01:53:30;;;;;;;6.85;3.88;;;;;;;15.75;100.00;100974.03;5061244;28;20045;-90
2023/09/10 01:55:56;;;;;;;7.55;3.20;;;;;;;15.69;100.00;100986.53;5051344;28;20029;-90
2023/09/10 01:58:22;;;;;;;6.93;3.45;;;;;;;15.68;100.00;100979.41;5053306;28;20021;-90
2023/09/10 02:00:48;;;;;;;8.30;3.65;;;;;;;15.88;100.00;100987.63;5036687;28;20375;-90
2023/09/10 02:03:13;;;;;;;9.20;3.78;;;;;;;16.05;100.00;100985.34;5036621;28;20039;-90
2023/09/10 02:05:42;;;;;;;9.02;3.88;;;;;;;16.13;100.00;100979.72;5036888;28;20037;-90
2023/09/10 02:08:07;;;;;;;9.98;4.15;;;;;;;16.17;100.00;100977.47;5053369;28;20041;-91
2023/09/10 02:10:33;;;;;;;9.05;3.88;;;;;;;16.22;100.00;100986.66;5037829;28;20095;-91
2023/09/10 02:13:01;;;;;;;7.45;3.92;;;;;;;16.25;100.00;100971.81;5057589;28;20371;-90
2023/09/10 02:15:26;;;;;;;7.50;3.83;;;;;;;16.31;100.00;100968.28;5057320;28;20116;-93
2023/09/10 02:17:56;;;;;;;7.60;3.95;;;;;;;16.40;100.00;100971.59;5040946;28;20448;-91
2023/09/10 02:20:21;;;;;;;6.20;3.40;;;;;;;16.40;100.00;100972.44;5040808;28;20390;-91
2023/09/10 02:22:47;;;;;;;7.18;3.45;;;;;;;16.37;100.00;100980.16;5058240;28;20112;-91
2023/09/10 02:25:13;;;;;;;7.25;3.30;;;;;;;16.39;100.00;100978.91;5040576;28;20037;-91
2023/09/10 02:27:39;;;;;;;5.30;3.33;;;;;;;16.46;100.00;100981.66;5057274;28;20041;-92
2023/09/10 02:30:07;;;;;;;8.63;3.78;;;;;;;16.55;100.00;100974.13;5073692;28;20071;-91
2023/09/10 02:32:32;;;;;;;7.43;3.17;;;;;;;16.61;100.00;100973.25;5057237;28;20567;-90
2023/09/10 02:34:58;;;;;;;7.65;3.20;;;;;;;16.66;100.00;100966.16;5056228;28;20112;-91
2023/09/10 02:37:24;;;;;;;5.40;2.85;;;;;;;16.63;100.00;100955.72;5057161;28;20095;-91
2023/09/10 02:39:49;;;;;;;4.65;2.85;;;;;;;16.55;100.00;100947.81;5056901;28;20033;-92
2023/09/10 02:42:15;;;;;;;5.07;3.17;;;;;;;16.43;100.00;100953.03;5040002;28;20051;-90
2023/09/10 02:44:44;;;;;;;8.25;3.10;;;;;;;16.33;100.00;100941.78;5040418;28;20115;-90
2023/09/10 02:47:09;;;;;;;6.90;3.45;;;;;;;16.33;100.00;100951.78;5056129;28;20056;-90
2023/09/10 02:49:35;;;;;;;6.75;2.97;;;;;;;16.25;100.00;100950.94;5039702;28;20033;-90
2023/09/10 02:52:01;;;;;;;6.28;3.15;;;;;;;16.14;100.00;100943.44;5056545;28;20033;-91
2023/09/10 02:54:28;;;;;;;7.47;3.70;;;;;;;16.07;100.00;100939.06;5056122;28;20033;-91
2023/09/10 02:56:53;;;;;;;8.07;3.88;;;;;;;15.95;100.00;100944.25;5039745;28;20067;-90
2023/09/10 02:59:24;;;;;;;6.88;4.00;;;;;;;15.76;100.00;100944.00;5057096;28;20051;-90
2023/09/10 03:01:50;;;;;;;7.60;3.75;;;;;;;15.66;100.00;100946.22;5056698;28;20115;-91
2023/09/10 03:04:16;;;;;;;8.75;4.72;;;;;;;15.57;100.00;100934.75;5064045;28;20033;-89
2023/09/10 03:06:46;;;;;;;9.27;4.40;;;;;;;15.49;100.00;100936.81;5048536;28;20029;-89
2023/09/10 03:09:13;;;;;;;11.02;4.55;;;;;;;15.39;100.00;100935.31;5046838;28;20067;-89
2023/09/10 03:11:39;;;;;;;10.15;4.72;;;;;;;15.33;100.00;100929.88;5029786;28;20120;-90
2023/09/10 03:14:05;;;;;;;11.30;4.60;;;;;;;15.22;100.00;100923.19;5096751;28;20511;-89
2023/09/10 03:16:32;;;;;;;12.35;4.97;;;;;;;15.21;100.00;100926.91;5058866;28;20029;-90
2023/09/10 03:18:58;;;;;;;13.23;5.00;;;;;;;15.22;100.00;100928.59;5055880;28;20464;-91
2023/09/10 03:21:24;;;;;;;12.40;5.57;;;;;;;15.25;100.00;100930.91;5055298;28;20033;-90
2023/09/10 03:23:50;;;;;;;13.38;5.40;;;;;;;15.28;100.00;100922.38;5037705;28;20032;-91
2023/09/10 03:26:17;;;;;;;11.57;5.50;;;;;;;15.40;100.00;100936.19;5054962;28;20045;-89
2023/09/10 03:28:44;;;;;;;14.30;6.07;;;;;;;15.54;100.00;100934.34;5055248;28;20036;-90
2023/09/10 03:31:10;;;;;;;13.95;6.53;;;;;;;15.67;100.00;100938.97;5056232;28;20369;-89
2023/09/10 03:33:36;;;;;;;14.82;5.85;;;;;;;15.74;100.00;100937.13;5056298;28;20040;-90
2023/09/10 03:36:02;;;;;;;17.48;6.68;;;;;;;15.80;100.00;100936.31;5038403;28;20029;-89
2023/09/10 03:38:31;;;;;;;13.82;5.65;;;;;;;15.83;100.00;100942.16;5038667;28;20072;-90
2023/09/10 03:40:57;;;;;;;11.20;4.65;;;;;;;15.82;100.00;100947.75;5055480;28;20068;-89
2023/09/10 03:43:22;;;;;;;9.98;4.80;;;;;;;15.77;100.00;100952.97;5054442;28;20068;-90
2023/09/10 03:45:48;;;;;;;8.00;4.30;;;;;;;15.77;100.00;100951.13;5055066;28;20033;-89
2023/09/10 03:48:13;;;;;;;8.45;4.13;;;;;;;15.80;100.00;100947.16;5037645;28;20085;-88
2023/09/10 03:50:39;;;;;;;9.00;4.07;;;;;;;15.87;100.00;100944.44;5054245;28;20115;-89
2023/09/10 03:53:05;;;;;;;7.68;4.40;;;;;;;15.97;100.00;100940.28;5054491;28;20037;-89
2023/09/10 03:55:30;;;;;;;6.95;4.07;;;;;;;16.07;100.00;100933.63;5037942;28;20037;-88
2023/09/10 03:57:56;;;;;;;8.93;4.28;;;;;;;16.11;100.00;100934.88;5038007;28;20043;-89
2023/09/10 04:00:22;;;;;;;7.13;3.75;;;;;;;16.16;100.00;100935.06;5054491;28;20539;-89
2023/09/10 04:02:48;;;;;;;6.95;4.38;;;;;;;16.21;100.00;100932.56;5038191;28;20075;-89
2023/09/10 04:05:14;;;;;;;6.32;4.28;;;;;;;16.20;100.00;100929.03;5054224;28;20110;-88
2023/09/10 04:07:40;;;;;;;7.55;4.72;;;;;;;16.18;100.00;100925.69;5053992;28;20024;-89
2023/09/10 04:10:07;;;;;;;6.15;3.63;;;;;;;16.16;100.00;100913.38;5054090;28;20492;-90
2023/09/10 04:12:32;;;;;;;7.78;3.63;;;;;;;16.24;100.00;100929.44;5037729;28;20056;-89
2023/09/10 04:15:00;;;;;;;5.57;3.70;;;;;;;16.25;100.00;100926.53;5037611;28;20431;-89
2023/09/10 04:17:28;;;;;;;7.57;4.00;;;;;;;16.26;100.00;100925.47;5087530;28;20041;-89
2023/09/10 04:19:54;;;;;;;10.10;3.90;;;;;;;16.30;100.00;100925.91;5039145;28;20135;-89
2023/09/10 04:22:20;;;;;;;6.72;3.85;;;;;;;16.35;100.00;100930.69;5058789;28;20061;-88
2023/09/10 04:24:46;;;;;;;6.90;3.88;;;;;;;16.43;100.00;100927.75;5069002;28;20035;-88
2023/09/10 04:27:12;;;;;;;6.93;3.88;;;;;;;16.51;100.00;100916.69;5053043;28;20444;-88
2023/09/10 04:29:37;;;;;;;7.22;3.90;;;;;;;16.57;100.00;100923.16;5053887;28;20028;-89
2023/09/10 04:32:03;;;;;;;7.20;3.83;;;;;;;16.56;100.00;100926.91;5037892;28;20033;-91
2023/09/10 04:34:29;;;;;;;6.75;4.00;;;;;;;16.54;100.00;100924.44;5053497;28;20025;-89
2023/09/10 04:36:54;;;;;;;11.07;3.83;;;;;;;16.60;100.00;100923.56;5053616;28;20174;-90
2023/09/10 04:39:22;;;;;;;5.28;3.55;;;;;;;16.63;100.00;100922.31;5035801;28;20033;-89
2023/09/10 04:41:48;;;;;;;6.70;3.45;;;;;;;16.64;100.00;100915.81;5052379;28;20033;-90
2023/09/10 04:44:13;;;;;;;6.15;4.00;;;;;;;16.65;100.00;100912.91;5054109;28;20028;-88
2023/09/10 04:46:39;;;;;;;7.90;4.00;;;;;;;16.70;100.00;100909.56;5037133;28;20086;-89
2023/09/10 04:49:05;;;;;;;7.13;4.10;;;;;;;16.77;100.00;100906.81;5037270;28;20061;-89
2023/09/10 04:51:30;;;;;;;7.10;4.20;;;;;;;16.85;100.00;100899.28;5053540;28;20031;-90
2023/09/10 04:53:56;;;;;;;5.95;4.75;;;;;;;16.91;100.00;100908.50;5020589;28;20463;-89
2023/09/10 04:56:21;;;;;;;11.55;4.65;;;;;;;16.98;100.00;100909.28;5054288;28;20036;-90
2023/09/10 04:58:47;;;;;;;9.52;5.00;;;;;;;17.06;100.00;100906.34;5053140;28;20535;-89
2023/09/10 05:01:13;;;;;;;9.98;5.45;;;;;;;17.16;100.00;100916.75;5053077;28;20028;-88
2023/09/10 05:03:41;;;;;;;8.75;4.60;;;;;;;17.23;100.00;100908.59;5053044;28;20071;-89
2023/09/10 05:06:07;;;;;;;9.32;4.20;;;;;;;17.26;100.00;100908.97;5036737;28;20120;-88
2023/09/10 05:08:33;;;;;;;10.02;4.28;;;;;;;17.26;100.00;100910.88;5052869;28;20029;-89
2023/09/10 05:10:58;;;;;;;10.20;4.80;;;;;;;17.23;100.00;100903.16;5052848;28;20531;-89
2023/09/10 05:13:24;;;;;;;8.48;4.32;;;;;;;17.23;100.00;100903.16;5053221;28;20037;-89
2023/09/10 05:15:51;;;;;;;7.05;4.30;;;;;;;17.20;100.00;100903.56;5053108;28;20455;-89
2023/09/10 05:18:16;;;;;;;10.00;4.15;;;;;;;17.13;100.00;100899.00;5036761;28;20041;-89
2023/09/10 05:20:42;;;;;;;10.02;4.38;;;;;;;17.07;100.00;100899.88;5036539;28;20033;-89
2023/09/10 05:23:10;;;;;;;7.75;4.72;;;;;;;17.00;100.00;100899.06;5053046;28;20056;-89
2023/09/10 05:25:36;;;;;;;9.38;5.03;;;;;;;16.88;100.00;100898.91;5036128;28;20033;-90
2023/09/10 05:28:03;;;;;;;13.40;5.00;;;;;;;16.79;100.00;100894.72;5036211;28;20064;-90
2023/09/10 05:30:29;;;;;;;7.93;4.68;;;;;;;16.72;100.00;100888.44;5036132;28;20025;-90
2023/09/10 05:32:56;;;;;;;7.75;5.05;;;;;;;16.73;100.00;100895.56;5036554;28;20040;-89
2023/09/10 05:35:22;;;;;;;9.35;4.43;;;;;;;16.73;100.00;100894.72;5052641;28;20040;-89
2023/09/10 05:37:47;;;;;;;7.78;5.15;;;;;;;16.69;100.00;100883.44;5052645;28;20025;-89
2023/09/10 05:40:13;;;;;;;10.20;5.40;;;;;;;16.66;100.00;100879.28;5052461;28;20399;-89
2023/09/10 05:42:38;;;;;;;9.85;5.18;;;;;;;16.75;100.00;100884.47;5036158;28;20044;-89
2023/09/10 05:45:04;;;;;;;7.32;4.45;;;;;;;16.76;100.00;100886.16;5052249;28;20039;-89
2023/09/10 05:47:30;;;;;;;8.38;4.57;;;;;;;16.73;100.00;100884.69;5035998;28;20029;-88
2023/09/10 05:49:56;;;;;;;8.60;4.72;;;;;;;16.73;100.00;100879.28;5019558;28;20040;-89
2023/09/10 05:52:21;;;;;;;10.13;4.50;;;;;;;16.74;100.00;100883.66;5036300;28;20571;-90
2023/09/10 05:54:47;;;;;;;9.48;4.40;;;;;;;16.74;100.00;100878.22;5052489;28;20039;-89
2023/09/10 05:57:12;;;;;;;6.85;4.07;;;;;;;16.73;100.00;100883.88;5035825;28;20033;-91
2023/09/10 05:59:38;;;;;;;5.97;4.15;;;;;;;16.75;100.00;100881.75;5035866;28;20049;-89
2023/09/10 06:02:04;;;;;;;7.13;4.70;;;;;;;16.76;100.00;100884.28;5053294;28;20082;-89
2023/09/10 06:04:31;;;;;;;8.73;4.35;;;;;;;16.80;100.00;100888.25;5052554;28;20471;-89
2023/09/10 06:07:02;;;;;;;8.85;4.95;;;;;;;16.80;100.00;100890.13;5036245;28;20037;-88
2023/09/10 06:09:28;;;;;;;6.88;4.63;;;;;;;16.84;100.00;100888.66;5036133;28;20032;-89
2023/09/10 06:11:53;;;;;;;8.55;4.93;;;;;;;16.87;100.00;100886.34;5053786;28;20041;-89
2023/09/10 06:14:19;;;;;;;8.73;4.88;;;;;;;16.94;100.00;100889.06;5052494;28;20029;-89
2023/09/10 06:16:44;;;;;;;9.88;4.55;;;;;;;17.00;100.00;100892.78;5036176;28;20372;-89
2023/09/10 06:19:10;;;;;;;14.70;5.97;;;;;;;17.06;100.00;100894.63;5052140;28;20025;-89
2023/09/10 06:21:36;;;;;;;11.88;5.38;;;;;;;17.08;100.00;100893.38;5035932;28;20487;-89
2023/09/10 06:24:01;;;;;;;10.35;5.35;;;;;;;17.13;100.00;100898.16;5035940;28;20476;-90
2023/09/10 06:26:29;;;;;;;10.55;5.20;;;;;;;17.18;100.00;100898.34;5056174;28;20395;-88
2023/09/10 06:28:55;;;;;;;13.25;6.43;;;;;;;17.26;100.00;100903.53;5040664;28;20033;-87
2023/09/10 06:31:21;;;;;;;8.25;5.30;;;;;;;17.35;100.00;100893.25;5055441;28;20494;-88
2023/09/10 06:33:46;;;;;;;8.68;5.35;;;;;;;17.44;100.00;100894.69;5056021;28;20089;-89
2023/09/10 06:36:12;;;;;;;10.98;6.18;;;;;;;17.46;100.00;100889.81;5055520;28;20086;-88
2023/09/10 06:38:37;;;;;;;10.00;5.63;;;;;;;17.48;100.00;100892.34;5054686;28;20535;-87
2023/09/10 06:41:03;;;;;;;10.60;5.53;;;;;;;17.48;100.00;100895.06;5036092;28;20128;-88
2023/09/10 06:43:31;;;;;;;11.65;5.57;;;;;;;17.50;100.00;100898.41;5051770;28;20029;-88
2023/09/10 06:45:57;;;;;;;10.07;5.07;;;;;;;17.49;100.00;100891.28;5036442;28;20041;-89
2023/09/10 06:48:22;;;;;;;8.95;5.50;;;;;;;17.61;100.00;100902.31;5052876;28;20029;-89
2023/09/10 06:50:48;;;;;;;12.82;5.70;;;;;;;17.62;100.00;100898.53;5057931;28;20082;-89
2023/09/10 06:53:13;;;;;;;9.90;7.35;;;;;;;17.64;100.00;100902.69;5064891;28;20162;-89
2023/09/10 06:55:39;;;;;;;9.05;5.38;;;;;;;17.72;100.00;100904.31;5075156;28;20075;-89
2023/09/10 06:58:05;;;;;;;12.25;5.55;;;;;;;17.80;100.00;100895.94;5077238;28;20077;-88
2023/09/10 07:00:30;;;;;;;10.57;6.88;;;;;;;17.84;100.00;100896.34;5073407;28;20030;-89
2023/09/10 07:02:57;;;;;;;11.55;5.85;;;;;;;17.90;100.00;100906.31;5045048;28;20044;-91
2023/09/10 07:05:23;;;;;;;10.80;6.47;;;;;;;17.95;100.00;100899.16;5040046;28;20029;-90
2023/09/10 07:07:53;;;;;;;13.45;7.00;;;;;;;18.06;100.00;100900.34;5056956;28;20040;-93
2023/09/10 07:10:20;;;;;;;14.38;7.15;;;;;;;18.19;100.00;100894.78;5058244;28;20031;-93
2023/09/10 07:12:45;;;;;;;10.80;6.43;;;;;;;18.21;100.00;100889.13;5057573;28;20186;-93
2023/09/10 07:15:11;;;;;;;11.57;7.55;;;;;;;18.23;100.00;100885.13;5058467;28;20472;-94
2023/09/10 07:17:37;;;;;;;12.32;7.25;;;;;;;18.22;100.00;100886.16;5058411;28;20108;-91
2023/09/10 07:20:03;;;;;;;11.63;5.78;;;;;;;18.24;100.00;100894.13;5041178;28;20391;-91
2023/09/10 07:22:29;;;;;;;12.35;6.97;;;;;;;18.22;100.00;100888.88;5058304;28;20032;-91
2023/09/10 07:24:55;;;;;;;13.38;6.57;;;;;;;18.21;100.00;100886.41;5057312;28;20036;-89
2023/09/10 07:27:21;;;;;;;10.02;6.78;;;;;;;18.27;100.00;100885.50;5041704;28;20025;-91
2023/09/10 07:29:47;;;;;;;12.98;7.80;;;;;;;18.37;100.00;100882.28;5056942;28;20043;-91
2023/09/10 07:32:13;;;;;;;11.82;6.63;;;;;;;18.60;100.00;100887.91;5056022;28;20037;-92
2023/09/10 07:34:39;;;;;;;12.32;6.82;;;;;;;18.88;100.00;100884.66;5055724;28;20037;-91
2023/09/10 07:37:05;;;;;;;9.73;6.03;;;;;;;19.33;100.00;100897.13;5055537;28;20471;-90
2023/09/10 07:39:31;;;;;;;7.20;5.82;;;;;;;19.81;100.00;100890.78;5039214;28;20044;-90
2023/09/10 07:41:56;;;;;;;10.18;6.25;;;;;;;20.53;100.00;100885.13;5041124;28;20037;-92
2023/09/10 07:44:22;;;;;;;10.32;5.43;;;;;;;20.45;100.00;100887.41;5056484;28;20057;-91
2023/09/10 07:46:48;;;;;;;7.72;5.15;;;;;;;20.47;100.00;100882.53;5055734;28;20383;-90
2023/09/10 07:49:13;;;;;;;8.73;6.22;;;;;;;20.54;100.00;100883.28;5055340;28;20064;-91
2023/09/10 07:51:39;;;;;;;7.97;5.63;;;;;;;20.73;100.00;100892.16;5055507;28;20388;-90
2023/09/10 07:54:06;;;;;;;8.50;5.90;;;;;;;20.79;100.00;100893.94;5056358;28;20494;-90
2023/09/10 07:56:31;;;;;;;10.90;5.43;;;;;;;20.66;100.00;100888.72;5054518;28;20025;-89
2023/09/10 07:58:58;;;;;;;8.80;5.72;;;;;;;20.52;100.00;100882.66;5056145;28;20033;-90
2023/09/10 08:01:23;;;;;;;9.02;5.57;;;;;;;20.54;100.00;100875.09;5057349;28;20031;-90
2023/09/10 08:03:49;;;;;;;8.30;5.53;;;;;;;20.68;100.00;100871.00;5056928;28;20021;-90
2023/09/10 08:06:15;;;;;;;6.78;5.28;;;;;;;20.78;100.00;100864.94;5072092;28;20033;-92
2023/09/10 08:08:41;;;;;;;9.68;5.82;;;;;;;20.82;100.00;100864.19;5054781;28;20106;-91
2023/09/10 08:11:09;;;;;;;9.20;5.68;;;;;;;20.91;100.00;100867.41;5056158;28;20112;-90
2023/09/10 08:13:38;;;;;;;9.55;6.22;;;;;;;20.86;100.00;100862.66;5055970;28;20040;-91
2023/09/10 08:16:24;;;;;;;7.70;6.00;;;;;;;21.58;100.00;100863.25;5038315;28;20025;-91
2023/09/10 08:18:55;;;;;;;10.27;6.18;;;;;;;21.72;100.00;100859.09;5039974;28;20025;-90
2023/09/10 08:21:21;;;;;;;9.52;6.45;;;;;;;22.10;100.00;100863.84;5055529;28;20037;-90
2023/09/10 08:23:47;;;;;;;8.68;5.95;;;;;;;21.95;100.00;100853.47;5041307;28;20092;-93
2023/09/10 08:26:13;;;;;;;7.88;5.53;;;;;;;22.01;100.00;100850.81;5058547;28;20033;-93
2023/09/10 08:28:42;;;;;;;8.98;5.95;;;;;;;23.02;100.00;100850.63;5068383;28;20021;-93
2023/09/10 08:31:15;;;;;;;7.40;4.80;;;;;;;24.38;100.00;100837.59;5076712;28;20077;-94
2023/09/10 08:33:40;;;;;;;7.70;5.35;;;;;;;25.27;100.00;100838.56;5094473;28;20064;-92
2023/09/10 08:36:12;;;;;;;7.00;4.97;;;;;;;25.98;100.00;100843.28;5070007;28;20041;-93
2023/09/10 08:38:38;;;;;;;8.00;4.97;;;;;;;26.52;96.71;100841.84;5058496;28;20045;-92
2023/09/10 08:41:29;;;;;;;6.35;5.00;;;;;;;27.30;91.37;100851.44;5040948;28;20033;-93
2023/09/10 08:44:01;;;;;;;8.43;5.20;;;;;;;27.70;81.99;100841.22;5091219;28;20044;-92
2023/09/10 08:46:30;;;;;;;8.38;5.43;;;;;;;27.71;77.78;100829.88;5039904;28;20037;-93
2023/09/10 08:49:00;;;;;;;7.70;5.38;;;;;;;26.95;79.40;100820.97;5041444;28;20487;-93
2023/09/10 08:51:28;;;;;;;7.07;5.45;;;;;;;26.13;83.62;100823.16;5041989;28;20032;-94
2023/09/10 08:53:57;;;;;;;7.30;5.43;;;;;;;25.15;92.10;100818.69;5059655;28;20183;-90
2023/09/10 08:56:25;;;;;;;8.68;5.60;;;;;;;24.79;95.29;100815.81;5039567;28;20044;-92
2023/09/10 08:58:52;;;;;;;7.10;5.40;;;;;;;26.59;86.70;100819.47;5055128;28;20025;-92
2023/09/10 09:01:18;;;;;;;7.38;5.00;;;;;;;27.75;78.68;100813.56;5039395;28;20056;-93
2023/09/10 09:03:47;;;;;;;6.63;5.13;;;;;;;28.12;73.75;100824.00;5054751;28;20040;-90
2023/09/10 09:06:14;;;;;;;6.00;5.00;;;;;;;28.58;72.05;100817.16;5053933;28;20097;-92
2023/09/10 09:08:41;;;;;;;6.18;4.93;;;;;;;29.25;68.89;100822.69;5055708;28;20032;-93
2023/09/10 09:11:08;;;;;;;6.43;5.45;;;;;;;29.12;67.89;100821.47;5038304;28;20047;-92
2023/09/10 09:13:38;;;;;;;7.57;5.20;;;;;;;27.47;74.49;100813.25;5038378;28;20033;-93
2023/09/10 09:16:06;;;;;;;7.15;5.13;;;;;;;26.69;78.22;100814.75;5037650;28;20033;-92
2023/09/10 09:18:34;;;;;;;7.05;5.38;;;;;;;28.14;72.16;100805.19;5053745;28;20035;-92
2023/09/10 09:21:05;;;;;;;6.57;4.93;;;;;;;29.23;68.17;100822.97;5052555;28;20032;-92
2023/09/10 09:23:37;;;;;;;5.95;4.47;;;;;;;28.10;71.44;100817.13;5054774;28;20553;-93
2023/09/10 09:26:05;;;;;;;7.80;5.93;;;;;;;26.69;78.67;100830.47;5042442;28;20090;-92
2023/09/10 09:28:33;;;;;;;8.48;5.57;;;;;;;25.76;84.89;100818.75;5069064;28;20058;-92
2023/09/10 09:30:59;;;;;;;6.03;4.97;;;;;;;25.06;87.99;100817.53;5066424;28;20111;-93
2023/09/10 09:33:25;;;;;;;9.05;5.70;;;;;;;24.42;94.38;100810.38;5076954;28;20045;-92
2023/09/10 09:35:51;;;;;;;7.90;5.60;;;;;;;24.56;95.58;100817.09;5077990;28;20056;-93
2023/09/10 09:38:17;;;;;;;7.88;5.40;;;;;;;24.51;95.58;100812.41;5079342;28;20049;-94
2023/09/10 09:40:46;;;;;;;9.18;5.30;;;;;;;24.08;99.48;100818.97;5054642;28;20033;-90
2023/09/10 09:43:12;;;;;;;8.88;6.90;;;;;;;23.96;100.00;100813.69;5055401;28;20029;-92
2023/09/10 09:45:39;;;;;;;7.93;5.38;;;;;;;24.10;100.00;100803.88;5055696;28;20045;-93
2023/09/10 09:48:05;;;;;;;9.93;5.72;;;;;;;24.46;100.00;100812.38;5071907;28;20016;-93
2023/09/10 09:50:32;;;;;;;7.90;5.90;;;;;;;24.94;95.60;100807.59;5073399;28;20010;-92
2023/09/10 09:52:58;;;;;;;7.40;5.85;;;;;;;25.66;91.59;100803.06;5067916;28;20092;-91
2023/09/10 09:55:24;;;;;;;9.82;6.40;;;;;;;25.40;91.97;100813.25;5070136;28;20032;-92
2023/09/10 09:57:50;;;;;;;8.45;6.03;;;;;;;25.39;91.54;100803.31;5059072;28;20060;-93
2023/09/10 10:00:16;;;;;;;9.05;6.07;;;;;;;25.06;93.36;100815.63;5037941;28;20069;-93
2023/09/10 10:02:43;;;;;;;9.70;5.70;;;;;;;24.89;94.40;100804.84;5053676;28;20090;-93
2023/09/10 10:05:09;;;;;;;9.52;5.20;;;;;;;24.91;95.13;100799.91;5053568;28;20044;-93
2023/09/10 10:07:36;;;;;;;10.07;6.13;;;;;;;25.00;94.26;100801.00;5054234;28;20045;-94
2023/09/10 10:10:06;;;;;;;8.73;6.43;;;;;;;24.54;97.75;100792.63;5054999;28;20032;-93
2023/09/10 10:12:32;;;;;;;8.27;5.40;;;;;;;23.89;100.00;100796.59;5053426;28;20040;-92
2023/09/10 10:14:59;;;;;;;7.20;5.85;;;;;;;23.42;100.00;100802.78;5053452;28;20025;-92
2023/09/10 10:17:25;;;;;;;7.95;5.60;;;;;;;23.23;100.00;100800.41;5053098;28;20025;-92
2023/09/10 10:19:51;;;;;;;7.40;5.63;;;;;;;23.32;100.00;100806.25;5053052;28;20033;-95
2023/09/10 10:22:17;;;;;;;7.10;5.63;;;;;;;23.38;100.00;100788.75;5053726;28;20167;-92
2023/09/10 10:24:44;;;;;;;6.93;6.13;;;;;;;23.52;100.00;100783.63;5053428;28;20033;-91
2023/09/10 10:27:12;;;;;;;9.23;5.55;;;;;;;23.61;100.00;100786.75;5036787;28;20365;-93
2023/09/10 10:29:39;;;;;;;9.00;5.50;;;;;;;23.83;100.00;100772.94;5037092;28;20025;-94
2023/09/10 10:32:16;;;;;;;8.90;5.65;;;;;;;23.57;100.00;100774.63;5055840;28;20037;-93
2023/09/10 10:34:52;;;;;;;7.28;5.75;;;;;;;23.26;100.00;100779.88;5057224;28;20021;-94
2023/09/10 10:37:30;;;;;;;10.23;5.75;;;;;;;23.29;100.00;100786.72;5057197;28;20112;-94
2023/09/10 10:40:10;;;;;;;8.07;5.45;;;;;;;23.56;100.00;100793.03;5057338;28;20056;-95
2023/09/10 10:42:52;;;;;;;7.90;5.50;;;;;;;24.00;100.00;100787.34;5040840;28;20043;-91
2023/09/10 10:45:19;;;;;;;7.97;5.18;;;;;;;24.20;100.00;100788.56;5041055;28;20033;-93
2023/09/10 10:47:46;;;;;;;8.60;5.10;;;;;;;24.29;100.00;100787.81;5056923;28;20476;-91
2023/09/10 10:50:13;;;;;;;10.68;5.75;;;;;;;24.40;100.00;100783.19;5023303;28;20037;-93
2023/09/10 10:52:47;;;;;;;8.15;5.13;;;;;;;24.48;100.00;100796.44;5056339;28;20116;-90
2023/09/10 10:55:13;;;;;;;6.63;5.10;;;;;;;24.62;100.00;100782.22;5056939;28;20463;-93
2023/09/10 10:57:38;;;;;;;7.45;5.97;;;;;;;24.94;100.00;100787.53;5056939;28;20110;-92
2023/09/10 11:00:08;;;;;;;7.40;5.70;;;;;;;25.11;100.00;100787.28;5058176;28;20483;-94
2023/09/10 11:02:34;;;;;;;7.18;5.72;;;;;;;25.48;97.78;100778.81;5056791;28;20032;-92
2023/09/10 11:05:02;;;;;;;5.95;5.10;;;;;;;25.51;94.82;100780.19;5056468;28;20058;-93
2023/09/10 11:07:35;;;;;;;8.75;5.35;;;;;;;25.16;97.20;100782.66;5056329;28;20456;-93
2023/09/10 11:10:27;;;;;;;7.27;5.47;;;;;;;24.91;99.06;100768.81;5056381;28;20033;-93
2023/09/10 11:13:09;;;;;;;8.98;5.72;;;;;;;24.86;100.00;100760.56;5057438;28;20029;-93
2023/09/10 11:15:35;;;;;;;7.57;5.28;;;;;;;24.82;100.00;100763.00;5056270;28;20072;-94
2023/09/10 11:18:35;;;;;;;8.57;5.38;;;;;;;24.84;100.00;100757.25;5056975;28;20379;-93